createdAt,value
2018-04-10T00:02:19.960Z,39.07
2018-04-10T00:05:23.260Z,40.40
2018-04-10T00:08:26.576Z,36.93
2018-04-10T00:11:29.881Z,35.30
2018-04-10T00:14:33.968Z,37.57
2018-04-10T00:17:37.288Z,36.83
2018-04-10T00:20:40.606Z,38.83
2018-04-10T00:23:43.932Z,39.23
2018-04-10T00:26:47.248Z,40.50
2018-04-10T00:29:50.560Z,38.03
2018-04-10T00:32:53.861Z,36.30
2018-04-10T00:35:57.184Z,42.07
2018-04-10T00:39:01.289Z,40.33
2018-04-10T00:42:05.357Z,34.30
2018-04-10T00:45:08.680Z,40.13
2018-04-10T00:48:11.984Z,36.43
2018-04-10T00:51:16.077Z,37.73
2018-04-10T00:54:19.384Z,34.47
2018-04-10T00:57:22.712Z,38.03
2018-04-10T01:00:26.781Z,36.93
2018-04-10T01:03:30.101Z,37.80
2018-04-10T01:06:33.421Z,36.10
2018-04-10T01:09:37.484Z,36.93
2018-04-10T01:12:40.800Z,33.90
2018-04-10T01:15:44.107Z,41.00
2018-04-10T01:18:47.415Z,34.57
2018-04-10T01:21:51.497Z,37.87
2018-04-10T01:24:54.793Z,36.73
2018-04-10T01:27:58.108Z,34.33
2018-04-10T01:31:01.430Z,35.93
2018-04-10T01:34:05.512Z,31.97
2018-04-10T01:37:08.832Z,32.27
2018-04-10T01:40:12.895Z,33.50
2018-04-10T01:43:16.212Z,34.30
2018-04-10T01:46:19.511Z,32.97
2018-04-10T01:49:22.834Z,34.40
2018-04-10T01:52:26.898Z,31.03
2018-04-10T01:55:30.223Z,37.90
2018-04-10T01:58:33.512Z,31.17
2018-04-10T02:01:36.832Z,30.70
2018-04-10T02:04:40.901Z,33.53
2018-04-10T02:07:44.224Z,33.37
2018-04-10T02:10:47.516Z,33.47
2018-04-10T02:13:50.833Z,31.70
2018-04-10T02:16:54.932Z,31.90
2018-04-10T02:19:58.241Z,30.27
2018-04-10T02:23:01.557Z,31.70
2018-04-10T02:26:05.636Z,28.73
2018-04-10T02:29:08.958Z,29.47
2018-04-10T02:32:13.024Z,31.43
2018-04-10T02:35:16.336Z,29.20
2018-04-10T02:38:19.644Z,29.97
2018-04-10T02:41:22.973Z,31.93
2018-04-10T02:44:27.038Z,29.50
2018-04-10T02:47:30.364Z,28.30
2018-04-10T02:50:33.669Z,27.70
2018-04-10T02:53:37.764Z,24.77
2018-04-10T02:56:41.066Z,27.70
2018-04-10T02:59:44.380Z,27.17
2018-04-10T03:02:48.448Z,27.87
2018-04-10T03:05:51.771Z,26.17
2018-04-10T03:08:55.097Z,28.93
2018-04-10T03:11:59.212Z,25.17
2018-04-10T03:15:02.518Z,23.10
2018-04-10T03:18:05.840Z,23.00
2018-04-10T03:21:09.174Z,26.53
2018-04-10T03:24:12.480Z,22.00
2018-04-10T03:27:16.582Z,21.67
2018-04-10T03:30:19.884Z,20.90
2018-04-10T03:33:23.221Z,18.63
2018-04-10T03:36:26.527Z,22.63
2018-04-10T03:39:29.848Z,21.03
2018-04-10T03:42:33.144Z,21.30
2018-04-10T03:45:36.455Z,20.67
2018-04-10T03:48:39.777Z,21.40
2018-04-10T03:51:43.850Z,22.63
2018-04-10T03:54:47.168Z,24.03
2018-04-10T03:57:50.469Z,24.33
2018-04-10T04:00:53.784Z,21.30
2018-04-10T04:03:57.863Z,23.47
2018-04-10T04:07:01.177Z,24.57
2018-04-10T04:10:04.498Z,21.57
2018-04-10T04:13:08.580Z,21.07
2018-04-10T04:16:29.660Z,22.37
2018-04-10T04:19:50.436Z,23.53
2018-04-10T04:22:53.773Z,22.67
2018-04-10T04:25:57.912Z,20.23
2018-04-10T04:29:01.234Z,22.33
2018-04-10T04:32:05.317Z,20.67
2018-04-10T04:35:08.632Z,21.33
2018-04-10T04:38:11.944Z,25.73
2018-04-10T04:41:16.003Z,23.10
2018-04-10T04:44:19.324Z,22.40
2018-04-10T04:47:22.648Z,24.83
2018-04-10T04:50:26.753Z,24.87
2018-04-10T04:53:30.840Z,23.67
2018-04-10T04:56:34.160Z,25.10
2018-04-10T04:59:37.477Z,23.63
2018-04-10T05:02:41.560Z,25.33
2018-04-10T05:05:44.866Z,24.57
2018-04-10T05:08:48.187Z,24.90
2018-04-10T05:11:51.488Z,25.27
2018-04-10T05:14:54.808Z,23.57
2018-04-10T05:17:58.111Z,23.70
2018-04-10T05:21:01.425Z,29.57
2018-04-10T05:24:04.749Z,25.13
2018-04-10T05:27:08.812Z,29.10
2018-04-10T05:30:12.128Z,24.90
2018-04-10T05:33:15.429Z,29.03
2018-04-10T05:36:18.768Z,31.63
2018-04-10T05:39:22.836Z,26.17
2018-04-10T05:42:26.165Z,32.13
2018-04-10T05:45:30.229Z,29.87
2018-04-10T05:48:33.547Z,30.00
2018-04-10T05:51:36.848Z,33.53
2018-04-10T05:54:40.177Z,30.97
2018-04-10T05:57:44.244Z,31.57
2018-04-10T06:00:47.617Z,33.17
2018-04-10T06:03:50.912Z,31.20
2018-04-10T06:06:54.233Z,38.33
2018-04-10T06:09:57.557Z,32.60
2018-04-10T06:13:00.865Z,36.77
2018-04-10T06:16:04.969Z,38.73
2018-04-10T06:19:08.272Z,36.57
2018-04-10T06:22:11.590Z,41.40
2018-04-10T06:25:14.923Z,33.77
2018-04-10T06:28:18.221Z,35.83
2018-04-10T06:31:21.539Z,36.13
2018-04-10T06:34:24.836Z,37.47
2018-04-10T06:37:28.194Z,38.03
2018-04-10T06:40:32.245Z,39.37
2018-04-10T06:43:35.569Z,42.10
2018-04-10T06:46:39.680Z,38.13
2018-04-10T06:49:42.980Z,40.03
2018-04-10T06:52:47.061Z,38.50
2018-04-10T06:55:50.361Z,40.97
2018-04-10T06:58:53.685Z,42.07
2018-04-10T07:01:57.780Z,41.43
2018-04-10T07:05:01.080Z,40.57
2018-04-10T07:08:04.400Z,45.23
2018-04-10T07:11:08.491Z,42.30
2018-04-10T07:14:11.817Z,42.77
2018-04-10T07:17:15.885Z,44.10
2018-04-10T07:20:19.214Z,43.73
2018-04-10T07:23:22.533Z,42.13
2018-04-10T07:26:25.856Z,42.27
2018-04-10T07:29:29.169Z,39.27
2018-04-10T07:32:32.506Z,41.90
2018-04-10T07:35:36.581Z,44.20
2018-04-10T07:38:39.929Z,45.53
2018-04-10T07:41:43.235Z,45.87
2018-04-10T07:44:46.580Z,42.27
2018-04-10T07:47:49.890Z,46.23
2018-04-10T07:50:53.216Z,40.70
2018-04-10T07:53:57.294Z,44.67
2018-04-10T07:57:00.632Z,41.37
2018-04-10T08:00:03.949Z,42.27
2018-04-10T08:03:07.272Z,44.13
2018-04-10T08:06:10.601Z,44.87
2018-04-10T08:09:14.681Z,43.77
2018-04-10T08:12:18.008Z,40.83
2018-04-10T08:15:21.336Z,40.40
2018-04-10T08:18:24.660Z,43.03
2018-04-10T08:21:27.984Z,44.30
2018-04-10T08:24:31.294Z,43.17
2018-04-10T08:27:34.623Z,41.93
2018-04-10T08:30:37.932Z,40.63
2018-04-10T08:33:41.265Z,40.23
2018-04-10T08:36:44.577Z,39.93
2018-04-10T08:39:47.909Z,41.60
2018-04-10T08:42:51.221Z,41.63
2018-04-10T08:45:54.552Z,43.73
2018-04-10T08:48:57.864Z,42.30
2018-04-10T08:52:01.188Z,43.17
2018-04-10T08:55:04.518Z,43.60
2018-04-10T08:58:07.849Z,44.40
2018-04-10T09:01:11.177Z,40.17
2018-04-10T09:04:14.493Z,45.23
2018-04-10T09:07:17.837Z,42.37
2018-04-10T09:10:21.159Z,47.73
2018-04-10T09:13:24.488Z,46.33
2018-04-10T09:16:27.801Z,40.83
2018-04-10T09:19:31.138Z,40.23
2018-04-10T09:22:35.212Z,40.63
2018-04-10T09:25:38.553Z,43.03
2018-04-10T09:28:42.624Z,41.67
2018-04-10T09:31:45.953Z,41.70
2018-04-10T09:34:49.256Z,40.57
2018-04-10T09:37:53.345Z,41.47
2018-04-10T09:40:56.656Z,39.03
2018-04-10T09:43:59.984Z,48.40
2018-04-10T09:47:03.312Z,43.70
2018-04-10T09:50:06.640Z,44.07
2018-04-10T09:53:09.969Z,47.27
2018-04-10T09:56:14.033Z,44.57
2018-04-10T09:59:17.344Z,49.50
2018-04-10T10:02:21.610Z,40.97
2018-04-10T10:05:24.940Z,41.37
2018-04-10T10:08:28.263Z,42.63
2018-04-10T10:11:31.560Z,39.27
2018-04-10T10:14:34.878Z,37.77
2018-04-10T10:17:38.957Z,39.37
2018-04-10T10:20:42.270Z,39.40
2018-04-10T10:23:45.586Z,36.27
2018-04-10T10:26:49.645Z,37.40
2018-04-10T10:29:53.728Z,40.20
2018-04-10T10:32:57.073Z,34.23
2018-04-10T10:36:00.371Z,36.10
2018-04-10T10:39:03.677Z,33.87
2018-04-10T10:42:07.001Z,36.53
2018-04-10T10:45:11.065Z,36.20
2018-04-10T10:48:14.393Z,35.30
2018-04-10T10:51:17.688Z,33.23
2018-04-10T10:54:21.005Z,30.93
2018-04-10T10:57:25.081Z,35.00
2018-04-10T11:00:28.392Z,35.23
2018-04-10T11:03:31.718Z,29.37
2018-04-10T11:06:35.012Z,33.30
2018-04-10T11:09:39.141Z,31.97
2018-04-10T11:12:42.436Z,28.27
2018-04-10T11:15:45.732Z,31.57
2018-04-10T11:18:49.053Z,28.63
2018-04-10T11:21:52.368Z,30.23
2018-04-10T11:24:55.733Z,29.27
2018-04-10T11:27:59.028Z,29.93
2018-04-10T11:31:02.352Z,28.87
2018-04-10T11:34:05.672Z,30.70
2018-04-10T11:37:08.974Z,31.67
2018-04-10T11:40:12.293Z,26.97
2018-04-10T11:43:16.381Z,28.87
2018-04-10T11:46:19.724Z,26.83
2018-04-10T11:49:23.024Z,25.50
2018-04-10T11:52:26.345Z,26.20
2018-04-10T11:55:29.656Z,27.73
2018-04-10T11:58:32.976Z,23.80
2018-04-10T12:01:37.051Z,28.20
2018-04-10T12:04:40.372Z,24.83
2018-04-10T12:07:43.679Z,27.20
2018-04-10T12:10:46.997Z,25.47
2018-04-10T12:13:51.085Z,29.23
2018-04-10T12:16:54.396Z,23.60
2018-04-10T12:19:58.480Z,22.20
2018-04-10T12:23:01.797Z,24.63
2018-04-10T12:26:05.119Z,24.87
2018-04-10T12:29:08.421Z,23.53
2018-04-10T12:32:11.756Z,24.93
2018-04-10T12:35:15.056Z,21.50
2018-04-10T12:38:18.392Z,23.17
2018-04-10T12:41:21.688Z,23.67
2018-04-10T12:44:25.768Z,22.57
2018-04-10T12:47:29.068Z,24.27
2018-04-10T12:50:32.392Z,26.53
2018-04-10T12:53:36.460Z,21.80
2018-04-10T12:56:39.788Z,31.53
2018-04-10T12:59:43.085Z,19.43
2018-04-10T13:02:46.409Z,26.60
2018-04-10T13:05:49.708Z,30.57
2018-04-10T13:08:53.028Z,22.87
2018-04-10T13:11:56.324Z,22.57
2018-04-10T13:14:59.664Z,22.77
2018-04-10T13:18:02.964Z,22.07
2018-04-10T13:21:06.301Z,21.17
2018-04-10T13:24:09.606Z,23.23
2018-04-10T13:27:12.934Z,26.67
2018-04-10T13:30:16.247Z,20.30
2018-04-10T13:33:20.187Z,22.83
2018-04-10T13:36:24.262Z,24.00
2018-04-10T13:39:27.588Z,26.47
2018-04-10T13:42:31.657Z,26.83
2018-04-10T13:45:34.980Z,29.53
2018-04-10T13:48:38.305Z,22.23
2018-04-10T13:51:42.388Z,32.50
2018-04-10T13:54:45.708Z,21.77
2018-04-10T13:57:49.049Z,25.33
2018-04-10T14:00:52.397Z,20.87
2018-04-10T14:03:56.464Z,25.17
2018-04-10T14:06:59.784Z,24.17
2018-04-10T14:10:03.085Z,27.40
2018-04-10T14:13:06.410Z,19.27
2018-04-10T14:16:10.480Z,26.00
2018-04-10T14:19:13.802Z,30.77
2018-04-10T14:22:17.130Z,26.03
2018-04-10T14:25:20.449Z,24.43
2018-04-10T14:28:23.746Z,26.30
2018-04-10T14:31:27.065Z,21.57
2018-04-10T14:34:30.396Z,23.20
2018-04-10T14:37:34.460Z,23.60
2018-04-10T14:40:37.777Z,23.67
2018-04-10T14:43:41.077Z,24.47
2018-04-10T14:46:44.392Z,20.83
2018-04-10T14:49:47.699Z,19.87
2018-04-10T14:52:51.784Z,22.83
2018-04-10T14:55:55.104Z,18.63
2018-04-10T14:58:58.424Z,22.53
2018-04-10T15:02:01.725Z,21.80
2018-04-10T15:05:05.047Z,17.70
2018-04-10T15:08:08.377Z,20.20
2018-04-10T15:11:11.686Z,19.70
2018-04-10T15:14:15.773Z,24.27
2018-04-10T15:17:19.072Z,17.23
2018-04-10T15:20:22.388Z,20.80
2018-04-10T15:23:25.705Z,19.30
2018-04-10T15:26:29.801Z,19.03
2018-04-10T15:29:33.141Z,21.53
2018-04-10T15:32:36.449Z,20.33
2018-04-10T15:35:39.781Z,19.93
2018-04-10T15:38:43.082Z,24.83
2018-04-10T15:41:46.412Z,20.80
2018-04-10T15:44:49.716Z,18.03
2018-04-10T15:47:53.758Z,20.10
2018-04-10T15:50:57.060Z,19.03
2018-04-10T15:54:00.391Z,16.97
2018-04-10T15:57:04.462Z,16.63
2018-04-10T16:00:07.788Z,16.30
2018-04-10T16:03:11.128Z,17.43
2018-04-10T16:06:14.433Z,19.77
2018-04-10T16:09:17.773Z,17.90
2018-04-10T16:12:21.076Z,18.60
2018-04-10T16:15:24.398Z,19.13
2018-04-10T16:18:27.700Z,14.13
2018-04-10T16:21:31.021Z,15.27
2018-04-10T16:24:34.345Z,14.87
2018-04-10T16:27:37.685Z,18.33
2018-04-10T16:30:41.760Z,15.20
2018-04-10T16:33:45.076Z,14.73
2018-04-10T16:36:49.304Z,15.70
2018-04-10T16:39:52.679Z,14.77
2018-04-10T16:42:56.809Z,14.83
2018-04-10T16:46:01.082Z,12.50
2018-04-10T16:49:04.418Z,14.00
2018-04-10T16:52:07.753Z,16.03
2018-04-10T16:55:11.073Z,17.70
2018-04-10T16:58:14.389Z,14.80
2018-04-10T17:01:17.684Z,17.17
2018-04-10T17:04:20.997Z,14.40
2018-04-10T17:07:24.297Z,16.67
2018-04-10T17:10:27.609Z,16.27
2018-04-10T17:13:32.641Z,13.33
2018-04-10T17:16:36.863Z,15.50
2018-04-10T17:19:41.174Z,16.40
2018-04-10T17:22:44.483Z,15.07
2018-04-10T17:25:47.809Z,12.33
2018-04-10T17:28:51.169Z,14.67
2018-04-10T17:31:56.115Z,9.13
2018-04-10T17:35:00.185Z,10.60
2018-04-10T17:38:03.505Z,9.73
2018-04-10T17:41:06.837Z,9.50
2018-04-10T17:44:10.149Z,10.03
2018-04-10T17:47:13.481Z,13.53
2018-04-10T17:50:16.808Z,10.70
2018-04-10T17:53:20.892Z,9.17
2018-04-10T17:56:24.196Z,11.97
2018-04-10T17:59:27.530Z,10.67
2018-04-10T18:02:30.832Z,10.23
2018-04-10T18:05:34.148Z,12.20
2018-04-10T18:08:37.455Z,17.70
2018-04-10T18:11:40.777Z,42.53
2018-04-10T18:14:44.076Z,10.33
2018-04-10T18:17:47.392Z,11.63
2018-04-10T18:20:50.719Z,11.10
2018-04-10T18:23:54.028Z,9.63
2018-04-10T18:26:57.348Z,10.17
2018-04-10T18:30:00.689Z,11.73
2018-04-10T18:33:04.777Z,13.33
2018-04-10T18:36:08.134Z,10.00
2018-04-10T18:39:12.181Z,11.20
2018-04-10T18:42:15.484Z,13.07
2018-04-10T18:45:18.800Z,9.20
2018-04-10T18:48:22.164Z,9.90
2018-04-10T18:51:25.464Z,12.97
2018-04-10T18:54:28.797Z,9.67
2018-04-10T18:57:32.100Z,10.00
2018-04-10T19:00:35.416Z,12.53
2018-04-10T19:03:38.720Z,11.97
2018-04-10T19:06:42.045Z,10.43
2018-04-10T19:09:45.352Z,10.70
2018-04-10T19:12:48.680Z,10.50
2018-04-10T19:15:52.017Z,10.50
2018-04-10T19:18:55.320Z,13.50
2018-04-10T19:21:58.657Z,13.13
2018-04-10T19:25:02.729Z,10.07
2018-04-10T19:28:06.058Z,13.50
2018-04-10T19:31:10.137Z,13.70
2018-04-10T19:34:13.473Z,15.90
2018-04-10T19:37:17.563Z,17.13
2018-04-10T19:40:20.894Z,15.47
2018-04-10T19:43:24.229Z,10.97
2018-04-10T19:46:27.545Z,8.13
2018-04-10T19:49:30.865Z,9.30
2018-04-10T19:52:34.192Z,11.63
2018-04-10T19:55:37.533Z,9.10
2018-04-10T19:58:40.833Z,10.27
2018-04-10T20:01:44.156Z,8.83
2018-04-10T20:04:48.296Z,9.03
2018-04-10T20:07:51.568Z,11.53
2018-04-10T20:10:54.900Z,9.37
2018-04-10T20:13:58.210Z,8.80
2018-04-10T20:17:01.548Z,9.13
2018-04-10T20:20:04.853Z,8.70
2018-04-10T20:23:08.210Z,6.37
2018-04-10T20:26:11.521Z,9.83
2018-04-10T20:29:14.841Z,10.97
2018-04-10T20:32:18.953Z,6.63
2018-04-10T20:35:22.289Z,11.53
2018-04-10T20:38:25.585Z,15.23
2018-04-10T20:41:28.904Z,9.77
2018-04-10T20:44:32.217Z,9.30
2018-04-10T20:47:35.534Z,7.40
2018-04-10T20:50:38.868Z,7.90
2018-04-10T20:53:42.176Z,8.53
2018-04-10T20:56:45.505Z,8.13
2018-04-10T20:59:48.824Z,8.17
2018-04-10T21:02:52.153Z,12.33
2018-04-10T21:05:55.469Z,10.90
2018-04-10T21:08:58.808Z,7.00
2018-04-10T21:12:02.117Z,9.83
2018-04-10T21:15:05.473Z,12.50
2018-04-10T21:18:08.805Z,9.57
2018-04-10T21:21:12.126Z,7.93
2018-04-10T21:24:16.235Z,12.30
2018-04-10T21:27:20.333Z,6.83
2018-04-10T21:30:23.710Z,7.33
2018-04-10T21:33:27.005Z,11.07
2018-04-10T21:36:30.329Z,6.50
2018-04-10T21:39:33.645Z,9.10
2018-04-10T21:42:42.456Z,6.23
2018-04-10T21:45:46.545Z,14.27
2018-04-10T21:48:49.881Z,10.93
2018-04-10T21:51:53.199Z,7.20
2018-04-10T21:54:56.545Z,8.33
2018-04-10T21:57:59.919Z,10.20
2018-04-10T22:01:03.225Z,7.83
2018-04-10T22:04:06.555Z,11.10
2018-04-10T22:07:10.691Z,7.87
2018-04-10T22:10:14.017Z,11.07
2018-04-10T22:13:18.861Z,9.00
2018-04-10T22:16:22.221Z,12.63
2018-04-10T22:19:25.554Z,5.47
2018-04-10T22:22:28.899Z,4.57
2018-04-10T22:25:32.209Z,9.17
2018-04-10T22:28:35.545Z,7.50
2018-04-10T22:31:38.905Z,7.17
2018-04-10T22:34:42.203Z,8.80
2018-04-10T22:37:45.529Z,6.10
2018-04-10T22:40:48.853Z,7.13
2018-04-10T22:43:52.181Z,10.73
2018-04-10T22:46:55.501Z,6.97
2018-04-10T22:49:58.867Z,8.10
2018-04-10T22:53:02.172Z,4.10
2018-04-10T22:56:05.521Z,6.83
2018-04-10T22:59:09.585Z,9.37
2018-04-10T23:02:12.912Z,8.80
2018-04-10T23:05:16.236Z,9.10
2018-04-10T23:08:19.577Z,6.03
2018-04-10T23:11:22.893Z,9.13
2018-04-10T23:14:26.234Z,10.30
2018-04-10T23:17:29.542Z,9.70
2018-04-10T23:20:33.652Z,8.00
2018-04-10T23:23:36.981Z,6.77
2018-04-10T23:26:40.321Z,11.47
2018-04-10T23:29:43.625Z,6.90
2018-04-10T23:32:46.969Z,7.17
2018-04-10T23:35:50.297Z,6.93
2018-04-10T23:38:53.622Z,9.43
2018-04-10T23:41:56.957Z,6.23
2018-04-10T23:45:01.065Z,3.70
2018-04-10T23:48:04.378Z,9.33
2018-04-10T23:51:07.707Z,7.80
2018-04-10T23:54:11.056Z,8.00
2018-04-10T23:57:14.376Z,9.53
